sensor_id;sensor_type;location;lat;lon;timestamp;P1;durP1;ratioP1;P2;durP2;ratioP2
64452;SDS011;50813;52.654;6.766;2023-03-15T00:00:17;130.31;;;9.21;;
64452;SDS011;50813;52.654;6.766;2023-03-15T00:01:53;99.3;;;9.31;;
64452;SDS011;50813;52.654;6.766;2023-03-15T00:03:29;119.5;;;9.5;;
64452;SDS011;50813;52.654;6.766;2023-03-15T00:06:42;7.9;;;3.4;;
64452;SDS011;50813;52.654;6.766;2023-03-15T00:08:19;258.7;;;15.2;;
64452;SDS011;50813;52.654;6.766;2023-03-15T00:09:56;21.0;;;4.0;;
64452;SDS011;50813;52.654;6.766;2023-03-15T00:13:09;271.9;;;14.5;;
64452;SDS011;50813;52.654;6.766;2023-03-15T00:14:47;13.6;;;3.7;;
64452;SDS011;50813;52.654;6.766;2023-03-15T00:16:23;17.0;;;3.8;;
64452;SDS011;50813;52.654;6.766;2023-03-15T00:19:36;25.2;;;3.9;;
64452;SDS011;50813;52.654;6.766;2023-03-15T00:21:13;47.0;;;7.2;;
64452;SDS011;50813;52.654;6.766;2023-03-15T00:22:50;47.0;;;7.2;;
64452;SDS011;50813;52.654;6.766;2023-03-15T00:24:26;113.2;;;7.9;;
64452;SDS011;50813;52.654;6.766;2023-03-15T00:27:39;189.6;;;10.3;;
64452;SDS011;50813;52.654;6.766;2023-03-15T00:29:15;59.1;;;5.11;;
64452;SDS011;50813;52.654;6.766;2023-03-15T00:31:01;86.0;;;11.6;;
64452;SDS011;50813;52.654;6.766;2023-03-15T00:34:15;61.4;;;7.2;;
64452;SDS011;50813;52.654;6.766;2023-03-15T00:35:51;381.2;;;20.8;;
64452;SDS011;50813;52.654;6.766;2023-03-15T00:37:27;34.5;;;5.3;;
64452;SDS011;50813;52.654;6.766;2023-03-15T00:39:04;124.0;;;8.1;;
64452;SDS011;50813;52.654;6.766;2023-03-15T00:42:16;59.8;;;7.0;;
64452;SDS011;50813;52.654;6.766;2023-03-15T00:43:52;6.7;;;3.6;;
64452;SDS011;50813;52.654;6.766;2023-03-15T00:45:28;75.7;;;7.0;;
64452;SDS011;50813;52.654;6.766;2023-03-15T00:48:41;64.91;;;5.3;;
64452;SDS011;50813;52.654;6.766;2023-03-15T00:50:17;17.41;;;5.2;;
64452;SDS011;50813;52.654;6.766;2023-03-15T00:51:54;46.9;;;5.5;;
64452;SDS011;50813;52.654;6.766;2023-03-15T00:55:09;27.6;;;4.8;;
64452;SDS011;50813;52.654;6.766;2023-03-15T00:56:46;25.3;;;5.3;;
64452;SDS011;50813;52.654;6.766;2023-03-15T00:58:22;5.11;;;2.7;;
64452;SDS011;50813;52.654;6.766;2023-03-15T00:59:59;87.9;;;7.0;;
64452;SDS011;50813;52.654;6.766;2023-03-15T01:03:12;8.6;;;2.7;;
64452;SDS011;50813;52.654;6.766;2023-03-15T01:04:48;66.8;;;4.5;;
64452;SDS011;50813;52.654;6.766;2023-03-15T01:06:25;66.3;;;7.4;;
64452;SDS011;50813;52.654;6.766;2023-03-15T01:09:39;86.1;;;7.0;;
64452;SDS011;50813;52.654;6.766;2023-03-15T01:11:17;95.9;;;6.0;;
64452;SDS011;50813;52.654;6.766;2023-03-15T01:12:54;79.61;;;7.8;;
64452;SDS011;50813;52.654;6.766;2023-03-15T01:16:07;27.6;;;3.4;;
64452;SDS011;50813;52.654;6.766;2023-03-15T01:17:46;67.1;;;4.8;;
64452;SDS011;50813;52.654;6.766;2023-03-15T01:19:22;36.5;;;3.5;;
64452;SDS011;50813;52.654;6.766;2023-03-15T01:20:58;232.4;;;12.5;;
64452;SDS011;50813;52.654;6.766;2023-03-15T01:24:12;24.8;;;2.9;;
64452;SDS011;50813;52.654;6.766;2023-03-15T01:25:50;79.8;;;5.4;;
64452;SDS011;50813;52.654;6.766;2023-03-15T01:27:28;106.3;;;6.1;;
64452;SDS011;50813;52.654;6.766;2023-03-15T01:30:40;94.3;;;7.6;;
64452;SDS011;50813;52.654;6.766;2023-03-15T01:32:25;230.0;;;18.3;;
64452;SDS011;50813;52.654;6.766;2023-03-15T01:34:01;7.8;;;3.1;;
64452;SDS011;50813;52.654;6.766;2023-03-15T01:35:37;35.81;;;4.41;;
64452;SDS011;50813;52.654;6.766;2023-03-15T01:38:49;8.5;;;2.7;;
64452;SDS011;50813;52.654;6.766;2023-03-15T01:40:26;42.0;;;3.7;;
64452;SDS011;50813;52.654;6.766;2023-03-15T01:42:02;78.11;;;7.3;;
64452;SDS011;50813;52.654;6.766;2023-03-15T01:45:48;5.7;;;2.21;;
64452;SDS011;50813;52.654;6.766;2023-03-15T01:47:31;5.7;;;2.21;;
64452;SDS011;50813;52.654;6.766;2023-03-15T01:49:08;14.2;;;2.6;;
64452;SDS011;50813;52.654;6.766;2023-03-15T01:50:48;22.4;;;4.41;;
64452;SDS011;50813;52.654;6.766;2023-03-15T01:52:27;32.9;;;4.7;;
64452;SDS011;50813;52.654;6.766;2023-03-15T01:55:53;72.7;;;3.8;;
64452;SDS011;50813;52.654;6.766;2023-03-15T01:57:30;52.2;;;5.11;;
64452;SDS011;50813;52.654;6.766;2023-03-15T01:59:12;7.4;;;2.31;;
64452;SDS011;50813;52.654;6.766;2023-03-15T02:00:55;82.3;;;4.8;;
64452;SDS011;50813;52.654;6.766;2023-03-15T02:04:08;65.91;;;5.7;;
64452;SDS011;50813;52.654;6.766;2023-03-15T02:05:50;11.9;;;2.7;;
64452;SDS011;50813;52.654;6.766;2023-03-15T02:07:32;8.1;;;2.6;;
64452;SDS011;50813;52.654;6.766;2023-03-15T02:09:08;8.1;;;2.6;;
64452;SDS011;50813;52.654;6.766;2023-03-15T02:12:26;8.5;;;2.7;;
64452;SDS011;50813;52.654;6.766;2023-03-15T02:14:05;5.7;;;2.0;;
64452;SDS011;50813;52.654;6.766;2023-03-15T02:15:44;5.9;;;1.8;;
64452;SDS011;50813;52.654;6.766;2023-03-15T02:17:23;6.7;;;2.21;;
64452;SDS011;50813;52.654;6.766;2023-03-15T02:20:58;5.0;;;1.7;;
64452;SDS011;50813;52.654;6.766;2023-03-15T02:22:46;36.1;;;2.7;;
64452;SDS011;50813;52.654;6.766;2023-03-15T02:24:31;57.3;;;4.41;;
64452;SDS011;50813;52.654;6.766;2023-03-15T02:26:17;82.6;;;3.7;;
64452;SDS011;50813;52.654;6.766;2023-03-15T02:28:00;55.1;;;4.5;;
64452;SDS011;50813;52.654;6.766;2023-03-15T02:31:16;40.31;;;3.8;;
64452;SDS011;50813;52.654;6.766;2023-03-15T02:32:53;5.7;;;2.7;;
64452;SDS011;50813;52.654;6.766;2023-03-15T02:34:31;8.4;;;2.8;;
64452;SDS011;50813;52.654;6.766;2023-03-15T02:37:52;10.4;;;2.5;;
64452;SDS011;50813;52.654;6.766;2023-03-15T02:39:28;6.1;;;2.0;;
64452;SDS011;50813;52.654;6.766;2023-03-15T02:41:04;7.8;;;3.9;;
64452;SDS011;50813;52.654;6.766;2023-03-15T02:42:41;14.4;;;3.1;;
64452;SDS011;50813;52.654;6.766;2023-03-15T02:45:59;28.5;;;3.9;;
64452;SDS011;50813;52.654;6.766;2023-03-15T02:47:37;7.6;;;2.1;;
64452;SDS011;50813;52.654;6.766;2023-03-15T02:49:14;21.6;;;3.0;;
64452;SDS011;50813;52.654;6.766;2023-03-15T02:50:53;63.4;;;5.2;;
64452;SDS011;50813;52.654;6.766;2023-03-15T02:54:05;5.7;;;1.7;;
64452;SDS011;50813;52.654;6.766;2023-03-15T02:55:41;7.6;;;2.4;;
64452;SDS011;50813;52.654;6.766;2023-03-15T02:57:18;7.8;;;2.31;;
64452;SDS011;50813;52.654;6.766;2023-03-15T03:00:31;5.7;;;1.9;;
64452;SDS011;50813;52.654;6.766;2023-03-15T03:02:07;6.9;;;1.9;;
64452;SDS011;50813;52.654;6.766;2023-03-15T03:03:44;6.5;;;2.0;;
64452;SDS011;50813;52.654;6.766;2023-03-15T03:06:58;5.3;;;1.7;;
64452;SDS011;50813;52.654;6.766;2023-03-15T03:08:34;10.6;;;2.4;;
64452;SDS011;50813;52.654;6.766;2023-03-15T03:10:12;6.9;;;1.9;;
64452;SDS011;50813;52.654;6.766;2023-03-15T03:11:51;38.21;;;4.0;;
64452;SDS011;50813;52.654;6.766;2023-03-15T03:15:04;47.8;;;3.6;;
64452;SDS011;50813;52.654;6.766;2023-03-15T03:16:42;7.8;;;2.31;;
64452;SDS011;50813;52.654;6.766;2023-03-15T03:18:18;7.3;;;2.8;;
64452;SDS011;50813;52.654;6.766;2023-03-15T03:21:31;6.3;;;1.9;;
64452;SDS011;50813;52.654;6.766;2023-03-15T03:23:07;9.4;;;2.5;;
64452;SDS011;50813;52.654;6.766;2023-03-15T03:24:43;7.5;;;1.9;;
64452;SDS011;50813;52.654;6.766;2023-03-15T03:27:56;8.9;;;1.8;;
64452;SDS011;50813;52.654;6.766;2023-03-15T03:29:33;9.5;;;2.4;;
64452;SDS011;50813;52.654;6.766;2023-03-15T03:31:15;11.7;;;1.8;;
64452;SDS011;50813;52.654;6.766;2023-03-15T03:32:53;11.2;;;2.4;;
64452;SDS011;50813;52.654;6.766;2023-03-15T03:36:05;32.1;;;2.6;;
64452;SDS011;50813;52.654;6.766;2023-03-15T03:37:42;12.2;;;2.6;;
64452;SDS011;50813;52.654;6.766;2023-03-15T03:39:19;18.11;;;2.7;;
64452;SDS011;50813;52.654;6.766;2023-03-15T03:42:31;9.31;;;1.8;;
64452;SDS011;50813;52.654;6.766;2023-03-15T03:44:07;7.8;;;1.7;;
64452;SDS011;50813;52.654;6.766;2023-03-15T03:45:43;26.9;;;2.6;;
64452;SDS011;50813;52.654;6.766;2023-03-15T03:47:19;3.9;;;1.7;;
64452;SDS011;50813;52.654;6.766;2023-03-15T03:50:31;9.0;;;2.0;;
64452;SDS011;50813;52.654;6.766;2023-03-15T03:52:08;26.4;;;2.8;;
64452;SDS011;50813;52.654;6.766;2023-03-15T03:53:44;7.8;;;2.1;;
64452;SDS011;50813;52.654;6.766;2023-03-15T03:56:56;5.7;;;1.5;;
64452;SDS011;50813;52.654;6.766;2023-03-15T03:58:32;7.6;;;1.7;;
64452;SDS011;50813;52.654;6.766;2023-03-15T04:00:09;10.6;;;1.9;;
64452;SDS011;50813;52.654;6.766;2023-03-15T04:03:24;7.5;;;1.7;;
64452;SDS011;50813;52.654;6.766;2023-03-15T04:05:00;10.9;;;1.9;;
64452;SDS011;50813;52.654;6.766;2023-03-15T04:06:37;5.9;;;1.5;;
64452;SDS011;50813;52.654;6.766;2023-03-15T04:08:14;13.8;;;2.4;;
64452;SDS011;50813;52.654;6.766;2023-03-15T04:11:26;8.5;;;1.6;;
64452;SDS011;50813;52.654;6.766;2023-03-15T04:13:02;10.1;;;1.9;;
64452;SDS011;50813;52.654;6.766;2023-03-15T04:14:38;9.0;;;1.7;;
64452;SDS011;50813;52.654;6.766;2023-03-15T04:17:51;8.71;;;2.0;;
64452;SDS011;50813;52.654;6.766;2023-03-15T04:19:28;9.71;;;2.1;;
64452;SDS011;50813;52.654;6.766;2023-03-15T04:21:04;9.71;;;2.1;;
64452;SDS011;50813;52.654;6.766;2023-03-15T04:24:17;9.9;;;2.21;;
64452;SDS011;50813;52.654;6.766;2023-03-15T04:25:53;22.6;;;2.5;;
64452;SDS011;50813;52.654;6.766;2023-03-15T04:27:29;9.1;;;2.1;;
64452;SDS011;50813;52.654;6.766;2023-03-15T04:30:46;6.4;;;1.6;;
64452;SDS011;50813;52.654;6.766;2023-03-15T04:32:23;4.7;;;1.4;;
64452;SDS011;50813;52.654;6.766;2023-03-15T04:33:59;8.4;;;1.7;;
64452;SDS011;50813;52.654;6.766;2023-03-15T04:35:36;6.9;;;1.6;;
64452;SDS011;50813;52.654;6.766;2023-03-15T04:38:49;8.71;;;1.9;;
64452;SDS011;50813;52.654;6.766;2023-03-15T04:40:25;7.7;;;1.4;;
64452;SDS011;50813;52.654;6.766;2023-03-15T04:42:02;9.1;;;1.9;;
64452;SDS011;50813;52.654;6.766;2023-03-15T04:45:17;7.9;;;1.6;;
64452;SDS011;50813;52.654;6.766;2023-03-15T04:46:54;8.6;;;1.7;;
64452;SDS011;50813;52.654;6.766;2023-03-15T04:48:31;10.21;;;2.0;;
64452;SDS011;50813;52.654;6.766;2023-03-15T04:50:07;9.9;;;3.1;;
64452;SDS011;50813;52.654;6.766;2023-03-15T04:53:20;10.21;;;2.21;;
64452;SDS011;50813;52.654;6.766;2023-03-15T04:54:56;5.5;;;1.6;;
64452;SDS011;50813;52.654;6.766;2023-03-15T04:56:32;10.6;;;1.9;;
64452;SDS011;50813;52.654;6.766;2023-03-15T04:59:45;8.81;;;2.0;;
64452;SDS011;50813;52.654;6.766;2023-03-15T05:01:21;9.9;;;2.0;;
64452;SDS011;50813;52.654;6.766;2023-03-15T05:03:03;7.9;;;1.8;;
64452;SDS011;50813;52.654;6.766;2023-03-15T05:06:15;6.6;;;2.0;;
64452;SDS011;50813;52.654;6.766;2023-03-15T05:07:52;9.21;;;1.7;;
64452;SDS011;50813;52.654;6.766;2023-03-15T05:09:28;7.7;;;1.5;;
64452;SDS011;50813;52.654;6.766;2023-03-15T05:11:05;23.9;;;2.6;;
64452;SDS011;50813;52.654;6.766;2023-03-15T05:14:17;10.21;;;2.0;;
64452;SDS011;50813;52.654;6.766;2023-03-15T05:15:53;7.2;;;2.0;;
64452;SDS011;50813;52.654;6.766;2023-03-15T05:17:29;11.2;;;1.8;;
64452;SDS011;50813;52.654;6.766;2023-03-15T05:20:41;9.81;;;1.4;;
64452;SDS011;50813;52.654;6.766;2023-03-15T05:22:17;8.71;;;2.21;;
64452;SDS011;50813;52.654;6.766;2023-03-15T05:23:53;7.5;;;1.8;;
64452;SDS011;50813;52.654;6.766;2023-03-15T05:27:06;28.4;;;3.0;;
64452;SDS011;50813;52.654;6.766;2023-03-15T05:28:42;5.7;;;1.5;;
64452;SDS011;50813;52.654;6.766;2023-03-15T05:30:18;8.71;;;2.0;;
64452;SDS011;50813;52.654;6.766;2023-03-15T05:31:54;7.9;;;1.9;;
64452;SDS011;50813;52.654;6.766;2023-03-15T05:35:07;9.21;;;1.9;;
64452;SDS011;50813;52.654;6.766;2023-03-15T05:36:44;5.9;;;1.5;;
64452;SDS011;50813;52.654;6.766;2023-03-15T05:38:20;5.8;;;1.4;;
64452;SDS011;50813;52.654;6.766;2023-03-15T05:41:32;9.9;;;1.8;;
64452;SDS011;50813;52.654;6.766;2023-03-15T05:43:08;8.0;;;2.0;;
64452;SDS011;50813;52.654;6.766;2023-03-15T05:44:45;7.8;;;2.7;;
64452;SDS011;50813;52.654;6.766;2023-03-15T05:47:58;9.1;;;2.1;;
64452;SDS011;50813;52.654;6.766;2023-03-15T05:49:34;13.2;;;3.3;;
64452;SDS011;50813;52.654;6.766;2023-03-15T05:51:11;10.6;;;1.7;;
64452;SDS011;50813;52.654;6.766;2023-03-15T05:54:25;15.1;;;2.8;;
64452;SDS011;50813;52.654;6.766;2023-03-15T05:56:01;8.2;;;1.5;;
64452;SDS011;50813;52.654;6.766;2023-03-15T05:57:37;9.9;;;2.21;;
64452;SDS011;50813;52.654;6.766;2023-03-15T05:59:13;9.31;;;1.7;;
64452;SDS011;50813;52.654;6.766;2023-03-15T06:02:25;11.7;;;2.4;;
64452;SDS011;50813;52.654;6.766;2023-03-15T06:04:02;11.0;;;2.21;;
64452;SDS011;50813;52.654;6.766;2023-03-15T06:05:38;9.1;;;2.5;;
64452;SDS011;50813;52.654;6.766;2023-03-15T06:08:50;14.1;;;3.6;;
64452;SDS011;50813;52.654;6.766;2023-03-15T06:10:26;58.3;;;3.9;;
64452;SDS011;50813;52.654;6.766;2023-03-15T06:12:02;41.3;;;4.61;;
64452;SDS011;50813;52.654;6.766;2023-03-15T06:15:15;7.8;;;1.7;;
64452;SDS011;50813;52.654;6.766;2023-03-15T06:16:52;7.4;;;2.0;;
64452;SDS011;50813;52.654;6.766;2023-03-15T06:18:29;7.2;;;1.9;;
64452;SDS011;50813;52.654;6.766;2023-03-15T06:20:06;9.5;;;2.21;;
64452;SDS011;50813;52.654;6.766;2023-03-15T06:23:19;10.6;;;1.7;;
64452;SDS011;50813;52.654;6.766;2023-03-15T06:24:55;26.8;;;3.1;;
64452;SDS011;50813;52.654;6.766;2023-03-15T06:26:31;11.0;;;1.9;;
64452;SDS011;50813;52.654;6.766;2023-03-15T06:29:43;8.71;;;1.8;;
64452;SDS011;50813;52.654;6.766;2023-03-15T06:31:19;21.7;;;3.7;;
64452;SDS011;50813;52.654;6.766;2023-03-15T06:32:56;38.6;;;3.2;;
64452;SDS011;50813;52.654;6.766;2023-03-15T06:36:08;22.9;;;3.1;;
64452;SDS011;50813;52.654;6.766;2023-03-15T06:37:45;41.7;;;4.2;;
64452;SDS011;50813;52.654;6.766;2023-03-15T06:39:22;8.5;;;1.9;;
64452;SDS011;50813;52.654;6.766;2023-03-15T06:40:58;8.81;;;2.1;;
64452;SDS011;50813;52.654;6.766;2023-03-15T06:44:12;26.6;;;2.21;;
64452;SDS011;50813;52.654;6.766;2023-03-15T06:45:49;13.4;;;2.6;;
64452;SDS011;50813;52.654;6.766;2023-03-15T06:47:26;49.9;;;3.8;;
64452;SDS011;50813;52.654;6.766;2023-03-15T06:50:38;38.5;;;2.7;;
64452;SDS011;50813;52.654;6.766;2023-03-15T06:52:15;50.9;;;3.6;;
64452;SDS011;50813;52.654;6.766;2023-03-15T06:53:52;26.7;;;2.5;;
64452;SDS011;50813;52.654;6.766;2023-03-15T06:57:05;36.21;;;4.2;;
64452;SDS011;50813;52.654;6.766;2023-03-15T06:58:41;157.4;;;9.0;;
64452;SDS011;50813;52.654;6.766;2023-03-15T07:00:18;16.61;;;2.5;;
64452;SDS011;50813;52.654;6.766;2023-03-15T07:01:55;40.5;;;3.2;;
64452;SDS011;50813;52.654;6.766;2023-03-15T07:05:07;7.3;;;2.4;;
64452;SDS011;50813;52.654;6.766;2023-03-15T07:06:44;10.21;;;2.21;;
64452;SDS011;50813;52.654;6.766;2023-03-15T07:08:21;10.1;;;2.1;;
64452;SDS011;50813;52.654;6.766;2023-03-15T07:11:36;63.0;;;4.61;;
64452;SDS011;50813;52.654;6.766;2023-03-15T07:13:12;55.7;;;3.5;;
64452;SDS011;50813;52.654;6.766;2023-03-15T07:14:48;115.0;;;5.4;;
64452;SDS011;50813;52.654;6.766;2023-03-15T07:18:00;41.2;;;4.2;;
64452;SDS011;50813;52.654;6.766;2023-03-15T07:19:36;77.2;;;7.0;;
64452;SDS011;50813;52.654;6.766;2023-03-15T07:21:12;5.4;;;2.5;;
64452;SDS011;50813;52.654;6.766;2023-03-15T07:22:49;8.4;;;2.4;;
64452;SDS011;50813;52.654;6.766;2023-03-15T07:26:01;8.6;;;2.4;;
64452;SDS011;50813;52.654;6.766;2023-03-15T07:27:38;9.1;;;2.9;;
64452;SDS011;50813;52.654;6.766;2023-03-15T07:29:14;9.31;;;3.0;;
64452;SDS011;50813;52.654;6.766;2023-03-15T07:32:28;36.1;;;4.0;;
64452;SDS011;50813;52.654;6.766;2023-03-15T07:34:04;51.6;;;3.8;;
64452;SDS011;50813;52.654;6.766;2023-03-15T07:35:40;32.5;;;3.8;;
64452;SDS011;50813;52.654;6.766;2023-03-15T07:38:52;97.6;;;5.11;;
64452;SDS011;50813;52.654;6.766;2023-03-15T07:40:28;12.1;;;2.5;;
64452;SDS011;50813;52.654;6.766;2023-03-15T07:42:04;32.1;;;2.9;;
64452;SDS011;50813;52.654;6.766;2023-03-15T07:45:16;14.6;;;2.0;;
64452;SDS011;50813;52.654;6.766;2023-03-15T07:46:52;33.6;;;5.5;;
64452;SDS011;50813;52.654;6.766;2023-03-15T07:48:28;33.6;;;5.5;;
64452;SDS011;50813;52.654;6.766;2023-03-15T07:50:07;48.8;;;3.2;;
64452;SDS011;50813;52.654;6.766;2023-03-15T07:53:19;32.9;;;2.7;;
64452;SDS011;50813;52.654;6.766;2023-03-15T07:54:56;16.8;;;3.1;;
64452;SDS011;50813;52.654;6.766;2023-03-15T07:56:32;66.41;;;4.3;;
64452;SDS011;50813;52.654;6.766;2023-03-15T07:59:44;43.9;;;3.5;;
64452;SDS011;50813;52.654;6.766;2023-03-15T08:01:20;5.6;;;1.7;;
64452;SDS011;50813;52.654;6.766;2023-03-15T08:02:56;26.7;;;3.2;;
64452;SDS011;50813;52.654;6.766;2023-03-15T08:06:09;14.2;;;2.21;;
64452;SDS011;50813;52.654;6.766;2023-03-15T08:07:46;7.1;;;2.1;;
64452;SDS011;50813;52.654;6.766;2023-03-15T08:09:23;42.6;;;3.7;;
64452;SDS011;50813;52.654;6.766;2023-03-15T08:10:59;48.0;;;4.3;;
64452;SDS011;50813;52.654;6.766;2023-03-15T08:14:11;154.5;;;7.5;;
64452;SDS011;50813;52.654;6.766;2023-03-15T08:15:47;7.3;;;2.21;;
64452;SDS011;50813;52.654;6.766;2023-03-15T08:17:23;6.0;;;2.21;;
64452;SDS011;50813;52.654;6.766;2023-03-15T08:20:36;7.1;;;2.8;;
64452;SDS011;50813;52.654;6.766;2023-03-15T08:22:12;65.0;;;6.8;;
64452;SDS011;50813;52.654;6.766;2023-03-15T08:23:48;18.7;;;2.5;;
64452;SDS011;50813;52.654;6.766;2023-03-15T08:27:01;6.8;;;2.0;;
64452;SDS011;50813;52.654;6.766;2023-03-15T08:28:38;14.2;;;3.0;;
64452;SDS011;50813;52.654;6.766;2023-03-15T08:30:15;6.0;;;2.21;;
64452;SDS011;50813;52.654;6.766;2023-03-15T08:31:52;172.5;;;10.6;;
64452;SDS011;50813;52.654;6.766;2023-03-15T08:35:05;113.9;;;6.3;;
64452;SDS011;50813;52.654;6.766;2023-03-15T08:36:44;57.7;;;4.0;;
64452;SDS011;50813;52.654;6.766;2023-03-15T08:38:21;24.1;;;4.61;;
64452;SDS011;50813;52.654;6.766;2023-03-15T08:41:33;26.5;;;2.8;;
64452;SDS011;50813;52.654;6.766;2023-03-15T08:43:09;34.1;;;3.7;;
64452;SDS011;50813;52.654;6.766;2023-03-15T08:44:45;11.2;;;2.7;;
64452;SDS011;50813;52.654;6.766;2023-03-15T08:47:58;48.9;;;3.3;;
64452;SDS011;50813;52.654;6.766;2023-03-15T08:49:35;35.4;;;4.1;;
64452;SDS011;50813;52.654;6.766;2023-03-15T08:51:11;32.6;;;2.6;;
64452;SDS011;50813;52.654;6.766;2023-03-15T08:52:47;88.7;;;6.8;;
64452;SDS011;50813;52.654;6.766;2023-03-15T08:56:00;17.7;;;2.21;;
64452;SDS011;50813;52.654;6.766;2023-03-15T08:57:36;36.21;;;3.9;;
64452;SDS011;50813;52.654;6.766;2023-03-15T08:59:12;8.71;;;1.8;;
64452;SDS011;50813;52.654;6.766;2023-03-15T09:02:26;7.5;;;1.5;;
64452;SDS011;50813;52.654;6.766;2023-03-15T09:04:03;21.7;;;3.1;;
64452;SDS011;50813;52.654;6.766;2023-03-15T09:05:39;39.71;;;2.9;;
64452;SDS011;50813;52.654;6.766;2023-03-15T09:08:51;59.1;;;3.6;;
64452;SDS011;50813;52.654;6.766;2023-03-15T09:10:27;38.71;;;3.9;;
64452;SDS011;50813;52.654;6.766;2023-03-15T09:12:04;27.4;;;2.31;;
64452;SDS011;50813;52.654;6.766;2023-03-15T09:13:40;126.1;;;6.4;;
64452;SDS011;50813;52.654;6.766;2023-03-15T09:16:52;263.5;;;13.2;;
64452;SDS011;50813;52.654;6.766;2023-03-15T09:18:29;164.6;;;7.4;;
64452;SDS011;50813;52.654;6.766;2023-03-15T09:20:06;40.31;;;5.6;;
64452;SDS011;50813;52.654;6.766;2023-03-15T09:23:21;55.4;;;3.7;;
64452;SDS011;50813;52.654;6.766;2023-03-15T09:24:57;33.5;;;3.0;;
64452;SDS011;50813;52.654;6.766;2023-03-15T09:26:33;46.3;;;2.9;;
64452;SDS011;50813;52.654;6.766;2023-03-15T09:29:46;63.7;;;4.1;;
64452;SDS011;50813;52.654;6.766;2023-03-15T09:31:22;68.61;;;4.1;;
64452;SDS011;50813;52.654;6.766;2023-03-15T09:32:58;34.1;;;2.5;;
64452;SDS011;50813;52.654;6.766;2023-03-15T09:34:35;31.8;;;3.2;;
64452;SDS011;50813;52.654;6.766;2023-03-15T09:37:48;12.3;;;2.7;;
64452;SDS011;50813;52.654;6.766;2023-03-15T09:39:25;8.31;;;2.0;;
64452;SDS011;50813;52.654;6.766;2023-03-15T09:41:01;7.7;;;1.8;;
64452;SDS011;50813;52.654;6.766;2023-03-15T09:44:33;6.7;;;2.1;;
64452;SDS011;50813;52.654;6.766;2023-03-15T09:46:23;11.8;;;2.21;;
64452;SDS011;50813;52.654;6.766;2023-03-15T09:48:05;6.5;;;1.8;;
64452;SDS011;50813;52.654;6.766;2023-03-15T09:49:46;8.1;;;1.9;;
64452;SDS011;50813;52.654;6.766;2023-03-15T09:51:31;7.2;;;1.8;;
64452;SDS011;50813;52.654;6.766;2023-03-15T09:54:56;8.31;;;1.7;;
64452;SDS011;50813;52.654;6.766;2023-03-15T09:56:35;5.7;;;1.5;;
64452;SDS011;50813;52.654;6.766;2023-03-15T09:58:16;9.1;;;1.9;;
64452;SDS011;50813;52.654;6.766;2023-03-15T09:59:56;7.7;;;1.5;;
64452;SDS011;50813;52.654;6.766;2023-03-15T10:03:15;6.3;;;2.0;;
64452;SDS011;50813;52.654;6.766;2023-03-15T10:04:58;6.1;;;1.5;;
64452;SDS011;50813;52.654;6.766;2023-03-15T10:06:42;6.5;;;1.2;;
64452;SDS011;50813;52.654;6.766;2023-03-15T10:08:25;10.1;;;2.1;;
64452;SDS011;50813;52.654;6.766;2023-03-15T10:11:41;6.8;;;1.7;;
64452;SDS011;50813;52.654;6.766;2023-03-15T10:13:30;6.9;;;1.7;;
64452;SDS011;50813;52.654;6.766;2023-03-15T10:15:21;4.91;;;1.6;;
64452;SDS011;50813;52.654;6.766;2023-03-15T10:19:00;41.7;;;2.8;;
64452;SDS011;50813;52.654;6.766;2023-03-15T10:20:43;4.7;;;1.11;;
64452;SDS011;50813;52.654;6.766;2023-03-15T10:24:12;32.21;;;2.7;;
64452;SDS011;50813;52.654;6.766;2023-03-15T10:25:53;34.21;;;2.31;;
64452;SDS011;50813;52.654;6.766;2023-03-15T10:27:30;5.6;;;1.3;;
64452;SDS011;50813;52.654;6.766;2023-03-15T10:29:13;3.9;;;1.3;;
64452;SDS011;50813;52.654;6.766;2023-03-15T10:32:36;4.7;;;1.5;;
64452;SDS011;50813;52.654;6.766;2023-03-15T10:34:17;4.7;;;1.5;;
64452;SDS011;50813;52.654;6.766;2023-03-15T10:35:53;3.9;;;1.4;;
64452;SDS011;50813;52.654;6.766;2023-03-15T10:37:30;5.11;;;1.6;;
64452;SDS011;50813;52.654;6.766;2023-03-15T10:40:45;4.91;;;1.4;;
64452;SDS011;50813;52.654;6.766;2023-03-15T10:42:29;7.2;;;1.4;;
64452;SDS011;50813;52.654;6.766;2023-03-15T10:44:09;3.7;;;1.5;;
64452;SDS011;50813;52.654;6.766;2023-03-15T10:45:59;5.6;;;1.4;;
64452;SDS011;50813;52.654;6.766;2023-03-15T10:49:17;6.7;;;1.9;;
64452;SDS011;50813;52.654;6.766;2023-03-15T10:50:54;9.9;;;1.5;;
64452;SDS011;50813;52.654;6.766;2023-03-15T10:52:32;5.9;;;1.4;;
64452;SDS011;50813;52.654;6.766;2023-03-15T10:54:11;41.4;;;2.31;;
64452;SDS011;50813;52.654;6.766;2023-03-15T10:57:36;4.7;;;2.1;;
64452;SDS011;50813;52.654;6.766;2023-03-15T10:59:16;5.11;;;1.6;;
64452;SDS011;50813;52.654;6.766;2023-03-15T11:00:59;7.9;;;1.8;;
64452;SDS011;50813;52.654;6.766;2023-03-15T11:02:38;6.5;;;1.8;;
64452;SDS011;50813;52.654;6.766;2023-03-15T11:06:02;5.2;;;1.7;;
64452;SDS011;50813;52.654;6.766;2023-03-15T11:07:56;5.7;;;2.0;;
64452;SDS011;50813;52.654;6.766;2023-03-15T11:09:37;4.8;;;1.7;;
64452;SDS011;50813;52.654;6.766;2023-03-15T11:11:15;6.8;;;2.21;;
64452;SDS011;50813;52.654;6.766;2023-03-15T11:14:46;19.8;;;3.6;;
64452;SDS011;50813;52.654;6.766;2023-03-15T11:18:15;11.7;;;4.5;;
64452;SDS011;50813;52.654;6.766;2023-03-15T11:19:55;18.41;;;11.8;;
64452;SDS011;50813;52.654;6.766;2023-03-15T11:21:32;215.9;;;198.0;;
64452;SDS011;50813;52.654;6.766;2023-03-15T11:24:52;432.2;;;404.7;;
64452;SDS011;50813;52.654;6.766;2023-03-15T11:26:30;352.1;;;331.9;;
64452;SDS011;50813;52.654;6.766;2023-03-15T11:28:14;106.8;;;95.2;;
64452;SDS011;50813;52.654;6.766;2023-03-15T11:29:55;19.0;;;14.1;;
64452;SDS011;50813;52.654;6.766;2023-03-15T11:33:13;554.31;;;510.1;;
64452;SDS011;50813;52.654;6.766;2023-03-15T11:35:05;61.8;;;57.6;;
64452;SDS011;50813;52.654;6.766;2023-03-15T11:36:47;727.3;;;673.2;;
64452;SDS011;50813;52.654;6.766;2023-03-15T11:38:31;837.9;;;774.2;;
64452;SDS011;50813;52.654;6.766;2023-03-15T11:40:10;1269.7;;;999.9;;
64452;SDS011;50813;52.654;6.766;2023-03-15T11:43:39;918.7;;;846.8;;
64452;SDS011;50813;52.654;6.766;2023-03-15T11:45:26;767.2;;;711.8;;
64452;SDS011;50813;52.654;6.766;2023-03-15T11:47:12;783.5;;;723.4;;
64452;SDS011;50813;52.654;6.766;2023-03-15T11:49:00;1165.0;;;999.9;;
64452;SDS011;50813;52.654;6.766;2023-03-15T11:52:46;843.3;;;781.3;;
64452;SDS011;50813;52.654;6.766;2023-03-15T11:56:18;1154.41;;;999.9;;
64452;SDS011;50813;52.654;6.766;2023-03-15T11:57:56;1093.3;;;997.9;;
64452;SDS011;50813;52.654;6.766;2023-03-15T12:02:35;920.4;;;832.8;;
64452;SDS011;50813;52.654;6.766;2023-03-15T12:04:35;1143.2;;;999.9;;
64452;SDS011;50813;52.654;6.766;2023-03-15T12:06:37;1581.1;;;999.9;;
64452;SDS011;50813;52.654;6.766;2023-03-15T12:08:15;1089.91;;;999.9;;
64452;SDS011;50813;52.654;6.766;2023-03-15T12:09:56;1241.61;;;999.9;;
64452;SDS011;50813;52.654;6.766;2023-03-15T12:11:55;1999.9;;;999.9;;
64452;SDS011;50813;52.654;6.766;2023-03-15T12:16:06;584.71;;;547.0;;
64452;SDS011;50813;52.654;6.766;2023-03-15T12:17:49;1193.91;;;999.9;;
64452;SDS011;50813;52.654;6.766;2023-03-15T12:21:10;1310.8;;;999.9;;
64452;SDS011;50813;52.654;6.766;2023-03-15T12:22:52;985.7;;;897.6;;
64452;SDS011;50813;52.654;6.766;2023-03-15T12:24:42;1686.7;;;999.9;;
64452;SDS011;50813;52.654;6.766;2023-03-15T12:26:25;1096.11;;;999.9;;
64452;SDS011;50813;52.654;6.766;2023-03-15T12:29:57;1160.11;;;999.9;;
64452;SDS011;50813;52.654;6.766;2023-03-15T12:31:41;391.4;;;367.4;;
64452;SDS011;50813;52.654;6.766;2023-03-15T12:33:50;395.4;;;372.5;;
64452;SDS011;50813;52.654;6.766;2023-03-15T12:35:29;1214.8;;;999.9;;
64452;SDS011;50813;52.654;6.766;2023-03-15T12:37:13;1137.11;;;999.9;;
64452;SDS011;50813;52.654;6.766;2023-03-15T12:38:58;1999.9;;;999.9;;
64452;SDS011;50813;52.654;6.766;2023-03-15T12:42:59;1065.0;;;967.7;;
64452;SDS011;50813;52.654;6.766;2023-03-15T12:44:37;1488.7;;;999.9;;
64452;SDS011;50813;52.654;6.766;2023-03-15T12:46:54;1209.41;;;999.9;;
64452;SDS011;50813;52.654;6.766;2023-03-15T12:49:04;1209.41;;;999.9;;
64452;SDS011;50813;52.654;6.766;2023-03-15T12:50:48;728.6;;;679.3;;
64452;SDS011;50813;52.654;6.766;2023-03-15T12:52:35;625.9;;;577.21;;
64452;SDS011;50813;52.654;6.766;2023-03-15T12:54:16;637.21;;;592.81;;